Time;durP1;ratioP1;P1;durP2;ratioP2;P2;SDS_P1;SDS_P2;PMS_P1;PMS_P2;Temp;Humidity;BMP_temperature;BMP_pressure;BME280_temperature;BME280_humidity;BME280_pressure;Samples;Min_cycle;Max_cycle;Signal;HPM_P1;HPM_P2
2023/12/29 00:02:00;;;;;;;24.27;4.53;;;;;;;-144.73;100.00;54629.38;5010788;28;20048;-75
2023/12/29 00:04:26;;;;;;;24.73;4.22;;;;;;;-144.73;100.00;54649.91;5026849;28;20025;-73
2023/12/29 00:06:51;;;;;;;31.17;4.00;;;;;;;-144.73;100.00;54633.47;5011871;28;20132;-74
2023/12/29 00:09:16;;;;;;;22.80;3.30;;;;;;;-144.73;100.00;54674.53;5011661;28;20117;-76
2023/12/29 00:11:42;;;;;;;26.90;3.88;;;;;;;-144.73;100.00;54604.75;5007281;28;20068;-78
2023/12/29 00:14:07;;;;;;;21.27;3.95;;;;;;;-144.73;100.00;54662.22;5013935;28;20385;-79
2023/12/29 00:16:32;;;;;;;24.83;4.28;;;;;;;-144.73;100.00;54633.47;5011121;28;20044;-77
2023/12/29 00:19:00;;;;;;;22.60;3.90;;;;;;;-144.73;100.00;54684.78;5011695;28;20073;-76
2023/12/29 00:21:25;;;;;;;23.02;4.03;;;;;;;-144.73;100.00;54670.44;5026580;28;20564;-76
2023/12/29 00:23:51;;;;;;;22.52;3.33;;;;;;;-144.73;100.00;54670.44;5027297;28;20117;-76
2023/12/29 00:26:17;;;;;;;23.40;4.88;;;;;;;-144.73;100.00;54639.63;5010611;28;20018;-76
2023/12/29 00:28:43;;;;;;;23.95;4.30;;;;;;;-144.73;100.00;54670.44;5010892;28;20145;-76
2023/12/29 00:31:09;;;;;;;18.95;4.07;;;;;;;-144.73;100.00;54662.22;5000301;28;20110;-76
2023/12/29 00:33:34;;;;;;;21.98;4.13;;;;;;;-144.73;100.00;54623.22;5036499;28;20087;-76
2023/12/29 00:36:00;;;;;;;26.83;4.10;;;;;;;-144.73;100.00;54684.78;5030839;28;20025;-76
2023/12/29 00:38:27;;;;;;;29.30;5.97;;;;;;;-144.73;100.00;54647.84;5013099;28;20044;-76
2023/12/29 00:40:53;;;;;;;30.63;4.43;;;;;;;-144.73;100.00;54658.13;5028421;28;20021;-77
2023/12/29 00:43:18;;;;;;;30.67;5.15;;;;;;;-144.73;100.00;54662.22;5020647;28;20041;-76
2023/12/29 00:45:43;;;;;;;25.95;4.30;;;;;;;-144.73;100.00;54637.59;5011276;28;20029;-75
2023/12/29 00:48:09;;;;;;;28.10;4.85;;;;;;;-144.73;100.00;54651.97;5011107;28;20040;-76
2023/12/29 00:50:34;;;;;;;28.50;4.40;;;;;;;-144.73;100.00;54670.44;5011564;28;20441;-76
2023/12/29 00:53:00;;;;;;;24.92;4.22;;;;;;;-144.73;100.00;54621.16;5010761;28;20030;-77
2023/12/29 00:55:28;;;;;;;21.33;4.25;;;;;;;-144.73;100.00;54635.53;5027295;28;20030;-78
2023/12/29 00:57:54;;;;;;;28.58;4.05;;;;;;;-144.73;100.00;54645.78;5010018;28;20037;-77
2023/12/29 01:00:19;;;;;;;28.30;4.40;;;;;;;-144.73;100.00;54674.53;5011076;28;20040;-77
2023/12/29 01:02:45;;;;;;;14.90;4.15;;;;;;;-144.73;100.00;54612.97;5010896;28;20109;-77
2023/12/29 01:05:17;;;;;;;21.60;3.95;;;;;;;-144.73;100.00;54660.16;5011686;28;20120;-76
2023/12/29 01:07:43;;;;;;;28.98;4.43;;;;;;;-144.73;100.00;54660.16;5012919;28;20033;-78
2023/12/29 01:10:08;;;;;;;23.05;4.22;;;;;;;-144.73;100.00;54656.06;5030764;28;20056;-76
2023/12/29 01:12:34;;;;;;;20.33;3.58;;;;;;;-144.73;100.00;54654.00;5027496;28;20030;-77
2023/12/29 01:14:59;;;;;;;19.42;4.68;;;;;;;-144.73;100.00;54645.78;5014432;28;20051;-76
2023/12/29 01:17:24;;;;;;;25.27;4.93;;;;;;;-144.73;100.00;54654.00;5013682;28;20038;-77
2023/12/29 01:19:49;;;;;;;17.27;3.65;;;;;;;-144.73;100.00;54658.13;5014410;28;20057;-76
2023/12/29 01:22:15;;;;;;;22.65;2.95;;;;;;;-144.73;100.00;54672.47;5013853;28;20057;-75
2023/12/29 01:24:40;;;;;;;16.33;3.15;;;;;;;-144.73;100.00;54627.31;5013436;28;20131;-75
2023/12/29 01:27:06;;;;;;;21.40;5.30;;;;;;;-144.73;100.00;54674.53;5013440;28;20026;-76
2023/12/29 01:29:31;;;;;;;21.77;3.75;;;;;;;-144.73;100.00;54670.44;5015500;28;20076;-77
2023/12/29 01:31:56;;;;;;;19.92;3.67;;;;;;;-144.73;100.00;54654.00;5013605;28;20030;-77
2023/12/29 01:34:21;;;;;;;16.20;3.33;;;;;;;-144.73;100.00;54676.59;5013797;28;20030;-77
2023/12/29 01:36:47;;;;;;;20.45;3.60;;;;;;;-144.73;100.00;54633.47;5013433;28;20029;-77
2023/12/29 01:39:15;;;;;;;22.65;4.28;;;;;;;-144.73;100.00;54699.16;5014243;28;20029;-77
2023/12/29 01:41:40;;;;;;;22.25;3.20;;;;;;;-144.73;100.00;54654.00;5015527;28;20030;-78
2023/12/29 01:44:26;;;;;;;18.92;3.53;;;;;;;-144.73;100.00;54643.75;5014730;28;20449;-77
2023/12/29 01:46:55;;;;;;;23.13;4.10;;;;;;;-144.73;100.00;54670.44;5013072;28;20109;-76
2023/12/29 01:49:21;;;;;;;18.85;4.13;;;;;;;-144.73;100.00;54682.75;5013269;28;20117;-77
2023/12/29 01:51:52;;;;;;;21.95;3.53;;;;;;;-144.73;100.00;54658.13;5014536;28;20030;-77
2023/12/29 01:54:20;;;;;;;16.08;3.17;;;;;;;-144.73;100.00;54629.38;5013603;28;20027;-77
2023/12/29 01:56:48;;;;;;;23.38;3.75;;;;;;;-144.73;100.00;54678.63;5013876;28;20030;-77
2023/12/29 01:59:13;;;;;;;20.95;3.75;;;;;;;-144.73;100.00;54670.44;5014371;28;20054;-77
2023/12/29 02:01:41;;;;;;;13.40;3.35;;;;;;;-144.73;100.00;54604.75;5013899;28;20056;-76
2023/12/29 02:04:07;;;;;;;24.50;3.22;;;;;;;-144.73;100.00;54682.75;5013729;28;20053;-76
2023/12/29 02:06:34;;;;;;;18.58;4.20;;;;;;;-144.73;100.00;54658.13;5012900;28;20030;-76
2023/12/29 02:09:02;;;;;;;21.98;4.30;;;;;;;-144.73;100.00;54670.44;5013558;28;20489;-77
2023/12/29 02:11:27;;;;;;;18.55;3.25;;;;;;;-144.73;100.00;54654.00;5013047;28;20120;-76
2023/12/29 02:13:53;;;;;;;24.13;3.22;;;;;;;-144.73;100.00;54641.69;5013463;28;20049;-76
2023/12/29 02:16:33;;;;;;;19.80;3.13;;;;;;;-144.73;100.00;54674.53;5012968;28;20022;-77
2023/12/29 02:19:01;;;;;;;19.30;3.47;;;;;;;-144.73;100.00;54649.91;5013361;28;20065;-77
2023/12/29 02:21:26;;;;;;;28.05;3.40;;;;;;;-144.73;100.00;54641.69;5012434;28;20034;-76
2023/12/29 02:23:51;;;;;;;17.83;3.78;;;;;;;-144.73;100.00;54658.13;5012013;28;20033;-76
2023/12/29 02:26:25;;;;;;;14.65;3.10;;;;;;;-144.73;100.00;54637.59;5012661;28;20022;-75
2023/12/29 02:28:59;;;;;;;20.33;3.50;;;;;;;-144.73;100.00;54678.63;5012650;28;20028;-75
2023/12/29 02:31:27;;;;;;;18.70;3.00;;;;;;;-144.73;100.00;54670.44;5021110;28;20472;-76
2023/12/29 02:33:53;;;;;;;14.63;2.72;;;;;;;-144.73;100.00;54633.47;5022695;28;20026;-76
2023/12/29 02:36:21;;;;;;;16.05;4.50;;;;;;;-144.73;100.00;54649.91;5029151;28;20018;-76
2023/12/29 02:38:46;;;;;;;23.73;3.80;;;;;;;-144.73;100.00;54670.44;5025547;28;20018;-75
2023/12/29 02:41:13;;;;;;;18.33;3.38;;;;;;;-144.73;100.00;54670.44;5028131;28;20075;-75
2023/12/29 02:43:38;;;;;;;14.18;2.88;;;;;;;-144.73;100.00;54658.13;5027174;28;20507;-75
2023/12/29 02:46:04;;;;;;;15.15;3.90;;;;;;;-144.73;100.00;54621.16;5031174;28;20014;-75
2023/12/29 02:48:29;;;;;;;15.43;2.83;;;;;;;-144.73;100.00;54656.06;5022226;28;20084;-77
2023/12/29 02:50:54;;;;;;;18.50;3.38;;;;;;;-144.73;100.00;54629.38;5030692;28;20448;-76
2023/12/29 02:53:20;;;;;;;17.05;3.08;;;;;;;-144.73;100.00;54672.47;5019002;28;20026;-76
2023/12/29 02:55:45;;;;;;;14.60;3.00;;;;;;;-144.73;100.00;54674.53;5027674;28;20030;-76
2023/12/29 02:58:10;;;;;;;14.23;2.60;;;;;;;-144.73;100.00;54670.44;5011245;28;20409;-76
2023/12/29 03:00:36;;;;;;;18.15;3.58;;;;;;;-144.73;100.00;54670.44;5013503;28;20107;-75
2023/12/29 03:03:01;;;;;;;13.88;3.22;;;;;;;-144.73;100.00;54674.53;5038033;28;20530;-76
2023/12/29 03:05:29;;;;;;;17.65;3.38;;;;;;;-144.73;100.00;54645.78;5030090;28;20075;-76
2023/12/29 03:07:54;;;;;;;19.40;3.42;;;;;;;-144.73;100.00;54645.78;5026060;28;20597;-76
2023/12/29 03:10:19;;;;;;;15.32;2.85;;;;;;;-144.73;100.00;54654.00;5030828;28;20109;-76
2023/12/29 03:12:45;;;;;;;15.23;2.55;;;;;;;-144.73;100.00;54660.16;5029650;28;20235;-75
2023/12/29 03:15:10;;;;;;;19.35;3.03;;;;;;;-144.73;100.00;54637.59;5030278;28;20076;-75
2023/12/29 03:17:35;;;;;;;15.43;3.75;;;;;;;-144.73;100.00;54678.63;5028626;28;20120;-75
2023/12/29 03:20:02;;;;;;;13.45;2.70;;;;;;;-144.73;100.00;54645.78;5022555;28;20029;-74
2023/12/29 03:22:27;;;;;;;14.57;2.70;;;;;;;-144.73;100.00;54651.97;5024738;28;20053;-76
2023/12/29 03:24:53;;;;;;;12.05;2.33;;;;;;;-144.73;100.00;54625.28;5031346;28;20091;-77
2023/12/29 03:27:18;;;;;;;17.92;2.88;;;;;;;-144.73;100.00;54662.22;5012778;28;20046;-77
2023/12/29 03:29:43;;;;;;;12.68;3.05;;;;;;;-144.73;100.00;54658.13;5022880;28;20484;-76
2023/12/29 03:32:09;;;;;;;14.63;3.35;;;;;;;-144.73;100.00;54670.44;5027577;28;20029;-76
2023/12/29 03:34:34;;;;;;;18.52;2.65;;;;;;;-144.73;100.00;54654.00;5029868;28;20029;-76
2023/12/29 03:37:00;;;;;;;14.95;2.83;;;;;;;-144.73;100.00;54608.84;5026037;28;20447;-76
2023/12/29 03:39:25;;;;;;;9.55;2.92;;;;;;;-144.73;100.00;54637.59;5020086;28;20029;-76
2023/12/29 03:41:50;;;;;;;17.92;2.53;;;;;;;-144.73;100.00;54641.69;5021943;28;20056;-77
2023/12/29 03:44:17;;;;;;;7.65;1.77;;;;;;;-144.73;100.00;54662.22;5030795;28;20029;-76
2023/12/29 03:46:43;;;;;;;10.60;2.72;;;;;;;-144.73;100.00;54647.84;5030531;28;20029;-76
2023/12/29 03:49:08;;;;;;;10.85;2.17;;;;;;;-144.73;100.00;54654.00;5046289;28;20044;-77
2023/12/29 03:51:34;;;;;;;12.18;2.05;;;;;;;-144.73;100.00;54682.75;5026357;28;20038;-76
2023/12/29 03:54:00;;;;;;;14.43;2.53;;;;;;;-144.73;100.00;54645.78;5029476;28;20108;-77
2023/12/29 03:56:26;;;;;;;11.38;2.20;;;;;;;-144.73;100.00;54649.91;5026689;28;20022;-76
2023/12/29 03:58:51;;;;;;;11.18;2.30;;;;;;;-144.73;100.00;54662.22;5027019;28;20037;-76
2023/12/29 04:01:17;;;;;;;9.40;2.00;;;;;;;-144.73;100.00;54645.78;5026080;28;20025;-76
2023/12/29 04:03:43;;;;;;;9.13;1.80;;;;;;;-144.73;100.00;54670.44;5026963;28;20037;-76
2023/12/29 04:06:09;;;;;;;8.50;2.40;;;;;;;-144.73;100.00;54637.59;5030220;28;20033;-77
2023/12/29 04:08:34;;;;;;;17.10;3.03;;;;;;;-144.73;100.00;54629.38;5027992;28;20586;-76
2023/12/29 04:11:00;;;;;;;10.25;3.20;;;;;;;-144.73;100.00;54658.13;5029665;28;20070;-78
2023/12/29 04:13:25;;;;;;;19.52;2.90;;;;;;;-144.73;100.00;54654.00;5030191;28;20037;-76
2023/12/29 04:15:51;;;;;;;10.65;2.60;;;;;;;-144.73;100.00;54682.75;5014703;28;20276;-77
2023/12/29 04:18:17;;;;;;;10.77;2.35;;;;;;;-144.73;100.00;54649.91;5039792;28;20053;-77
2023/12/29 04:20:43;;;;;;;16.02;2.92;;;;;;;-144.73;100.00;54625.28;5024530;28;20087;-78
2023/12/29 04:23:09;;;;;;;15.82;2.00;;;;;;;-144.73;100.00;54649.91;5024883;28;20046;-76
2023/12/29 04:25:34;;;;;;;16.55;1.98;;;;;;;-144.73;100.00;54633.47;5011661;28;20025;-77
2023/12/29 04:28:00;;;;;;;10.88;1.85;;;;;;;-144.73;100.00;54633.47;5026830;28;20041;-77
2023/12/29 04:30:25;;;;;;;7.70;1.60;;;;;;;-144.73;100.00;54670.44;5027140;28;20079;-78
2023/12/29 04:32:51;;;;;;;6.88;1.48;;;;;;;-144.73;100.00;54627.31;5015687;28;20057;-78
2023/12/29 04:35:16;;;;;;;14.18;2.72;;;;;;;-144.73;100.00;54637.59;5031803;28;20044;-79
2023/12/29 04:37:45;;;;;;;9.75;1.38;;;;;;;-144.73;100.00;54686.84;5028816;28;20037;-80
2023/12/29 04:40:11;;;;;;;6.68;1.42;;;;;;;-144.73;100.00;54662.22;5032324;28;20155;-79
2023/12/29 04:42:39;;;;;;;8.18;1.40;;;;;;;-144.73;100.00;54670.44;5031541;28;20065;-77
2023/12/29 04:45:05;;;;;;;9.23;1.77;;;;;;;-144.73;100.00;54680.69;5028015;28;20021;-77
2023/12/29 04:47:31;;;;;;;7.20;1.70;;;;;;;-144.73;100.00;54612.97;5031372;28;20033;-76
2023/12/29 04:49:57;;;;;;;9.43;1.77;;;;;;;-144.73;100.00;54633.47;5035818;28;20085;-79
2023/12/29 04:52:22;;;;;;;15.30;1.67;;;;;;;-144.73;100.00;54654.00;5035315;28;20060;-78
2023/12/29 04:54:48;;;;;;;4.60;0.98;;;;;;;-144.73;100.00;54654.00;5027485;28;20038;-80
2023/12/29 04:57:14;;;;;;;6.82;1.42;;;;;;;-144.73;100.00;54662.22;5023410;28;20120;-78
2023/12/29 04:59:39;;;;;;;8.35;1.52;;;;;;;-144.73;100.00;54658.13;5034004;28;20114;-80
2023/12/29 05:02:05;;;;;;;8.68;1.70;;;;;;;-144.73;100.00;54623.22;5024987;28;20100;-78
2023/12/29 05:04:30;;;;;;;10.38;1.75;;;;;;;-144.73;100.00;54617.06;5014552;28;20053;-78
2023/12/29 05:06:56;;;;;;;14.55;1.83;;;;;;;-144.73;100.00;54662.22;5015541;28;20160;-79
2023/12/29 05:09:21;;;;;;;16.40;2.63;;;;;;;-144.73;100.00;54686.84;5015263;28;20048;-77
2023/12/29 05:11:46;;;;;;;15.18;2.58;;;;;;;-144.73;100.00;54686.84;5023616;28;20091;-77
2023/12/29 05:14:12;;;;;;;23.05;3.10;;;;;;;-144.73;100.00;54711.47;5028292;28;20026;-77
2023/12/29 05:16:37;;;;;;;12.20;2.33;;;;;;;-144.73;100.00;54670.44;5037069;28;20042;-77
2023/12/29 05:19:02;;;;;;;18.50;3.45;;;;;;;-144.73;100.00;54678.63;5028257;28;20083;-77
2023/12/29 05:21:28;;;;;;;22.77;3.25;;;;;;;-144.73;100.00;54658.13;5034558;28;20112;-78
2023/12/29 05:23:53;;;;;;;14.88;2.55;;;;;;;-144.73;100.00;54662.22;5034285;28;20025;-77
2023/12/29 05:26:22;;;;;;;13.15;2.85;;;;;;;-144.73;100.00;54641.69;5034135;28;20108;-76
2023/12/29 05:28:47;;;;;;;11.65;2.15;;;;;;;-144.73;100.00;54637.59;5034508;28;20021;-76
2023/12/29 05:31:12;;;;;;;14.02;2.75;;;;;;;-144.73;100.00;54658.13;5033240;28;20128;-76
2023/12/29 05:33:38;;;;;;;12.10;1.50;;;;;;;-144.73;100.00;54711.47;5030497;28;20064;-77
2023/12/29 05:36:08;;;;;;;9.68;1.98;;;;;;;-144.73;100.00;54670.44;5021382;28;20116;-77
2023/12/29 05:38:35;;;;;;;7.50;1.83;;;;;;;-144.73;100.00;54641.69;5022258;28;20034;-76
2023/12/29 05:41:02;;;;;;;10.43;1.88;;;;;;;-144.73;100.00;54604.75;5028331;28;20021;-76
2023/12/29 05:43:27;;;;;;;14.65;2.20;;;;;;;-144.73;100.00;54690.97;5029114;28;20053;-76
2023/12/29 05:45:53;;;;;;;13.15;2.28;;;;;;;-144.73;100.00;54662.22;5044249;28;20029;-76
2023/12/29 05:48:18;;;;;;;11.23;2.00;;;;;;;-144.73;100.00;54629.38;5029895;28;20037;-77
2023/12/29 05:50:44;;;;;;;13.65;2.22;;;;;;;-144.73;100.00;54670.44;5028589;28;20125;-76
2023/12/29 05:53:09;;;;;;;11.60;2.10;;;;;;;-144.73;100.00;54649.91;5015285;28;20121;-76
2023/12/29 05:55:34;;;;;;;12.82;2.85;;;;;;;-144.73;100.00;54670.44;5012345;28;20041;-76
2023/12/29 05:58:00;;;;;;;10.43;1.67;;;;;;;-144.73;100.00;54662.22;5012985;28;20089;-75
2023/12/29 06:00:25;;;;;;;13.18;2.38;;;;;;;-144.73;100.00;54678.63;5012216;28;20026;-75
2023/12/29 06:02:50;;;;;;;14.32;2.63;;;;;;;-144.73;100.00;54621.16;5023031;28;20144;-75
2023/12/29 06:05:16;;;;;;;11.10;2.30;;;;;;;-144.73;100.00;54660.16;5031568;28;20025;-74
2023/12/29 06:07:41;;;;;;;16.25;2.35;;;;;;;-144.73;100.00;54649.91;5031906;28;20029;-75
2023/12/29 06:10:08;;;;;;;10.27;2.00;;;;;;;-144.73;100.00;54658.13;5031722;28;20076;-75
2023/12/29 06:12:34;;;;;;;14.30;2.20;;;;;;;-144.73;100.00;54645.78;5030978;28;20108;-74
2023/12/29 06:14:59;;;;;;;9.48;2.22;;;;;;;-144.73;100.00;54662.22;5032750;28;20112;-74
2023/12/29 06:17:25;;;;;;;12.57;1.88;;;;;;;-144.73;100.00;54658.13;5030782;28;20072;-74
2023/12/29 06:19:52;;;;;;;19.05;3.33;;;;;;;-144.73;100.00;54690.97;5031965;28;20028;-75
2023/12/29 06:22:18;;;;;;;17.42;2.88;;;;;;;-144.73;100.00;54670.44;5027880;28;20033;-75
2023/12/29 06:24:43;;;;;;;21.55;3.33;;;;;;;-144.73;100.00;54654.00;5029989;28;20028;-76
2023/12/29 06:27:09;;;;;;;17.33;2.83;;;;;;;-144.73;100.00;54662.22;5029539;28;20037;-76
2023/12/29 06:29:36;;;;;;;14.00;3.65;;;;;;;-144.73;100.00;54674.53;5026360;28;20104;-76
2023/12/29 06:32:02;;;;;;;22.85;3.63;;;;;;;-144.73;100.00;54654.00;5027650;28;20033;-76
2023/12/29 06:34:28;;;;;;;23.30;4.03;;;;;;;-144.73;100.00;54637.59;5012080;28;20034;-75
2023/12/29 06:36:53;;;;;;;16.13;3.55;;;;;;;-144.73;100.00;54633.47;5027819;28;20028;-75
2023/12/29 06:39:18;;;;;;;21.95;4.10;;;;;;;-144.73;100.00;54690.97;5012508;28;20037;-75
2023/12/29 06:41:44;;;;;;;18.60;4.20;;;;;;;-144.73;100.00;54715.59;5026085;28;20399;-75
2023/12/29 06:44:10;;;;;;;23.73;3.42;;;;;;;-144.73;100.00;54649.91;5030400;28;20017;-76
2023/12/29 06:46:39;;;;;;;14.77;3.13;;;;;;;-144.73;100.00;54649.91;5025630;28;20069;-75
2023/12/29 06:49:06;;;;;;;23.85;3.92;;;;;;;-144.73;100.00;54686.84;5031951;28;20075;-75
2023/12/29 06:51:31;;;;;;;14.60;3.13;;;;;;;-144.73;100.00;54682.75;5026215;28;20037;-75
2023/12/29 06:53:56;;;;;;;19.92;3.95;;;;;;;-144.73;100.00;54670.44;5030491;28;20025;-77
2023/12/29 06:56:22;;;;;;;23.83;4.00;;;;;;;-144.73;100.00;54656.06;5029540;28;20118;-76
2023/12/29 06:58:48;;;;;;;19.83;3.15;;;;;;;-144.73;100.00;54625.28;5030297;28;20018;-76
2023/12/29 07:01:13;;;;;;;28.13;4.03;;;;;;;-144.73;100.00;54612.97;5029886;28;20408;-77
2023/12/29 07:03:39;;;;;;;21.65;4.35;;;;;;;-144.73;100.00;54695.06;5029135;28;20031;-76
2023/12/29 07:06:04;;;;;;;17.42;4.30;;;;;;;-144.73;100.00;54699.16;5030492;28;20024;-76
2023/12/29 07:08:29;;;;;;;31.90;5.63;;;;;;;-144.73;100.00;54682.75;5029856;28;20029;-75
2023/12/29 07:10:55;;;;;;;30.75;5.03;;;;;;;-144.73;100.00;54662.22;5030173;28;20053;-75
2023/12/29 07:13:20;;;;;;;21.77;3.63;;;;;;;-144.73;100.00;54654.00;5028760;28;20089;-76
2023/12/29 07:15:47;;;;;;;28.88;4.53;;;;;;;-144.73;100.00;54676.59;5030352;28;20041;-77
2023/12/29 07:18:13;;;;;;;23.48;4.38;;;;;;;-144.73;100.00;54707.38;5029273;28;20565;-75
2023/12/29 07:20:39;;;;;;;28.92;4.15;;;;;;;-144.73;100.00;54678.63;5029306;28;20028;-75
2023/12/29 07:23:07;;;;;;;34.13;5.75;;;;;;;-144.73;100.00;54662.22;5029832;28;20049;-75
2023/12/29 07:25:32;;;;;;;26.77;4.72;;;;;;;-144.73;100.00;54670.44;5029369;28;20017;-74
2023/12/29 07:27:57;;;;;;;28.20;4.07;;;;;;;-144.73;100.00;54654.00;5029253;28;20055;-76
2023/12/29 07:30:23;;;;;;;28.48;4.63;;;;;;;-144.73;100.00;54678.63;5029815;28;20038;-75
2023/12/29 07:32:48;;;;;;;33.10;4.40;;;;;;;-144.73;100.00;54682.75;5029425;28;20033;-75
2023/12/29 07:35:17;;;;;;;28.75;3.55;;;;;;;-144.73;100.00;54621.16;5029715;28;20021;-75
2023/12/29 07:37:46;;;;;;;22.60;3.53;;;;;;;-144.73;100.00;54637.59;5030679;28;20025;-75
2023/12/29 07:40:15;;;;;;;36.50;4.90;;;;;;;-144.73;100.00;54649.91;5029941;28;20028;-76
2023/12/29 07:42:40;;;;;;;21.60;4.82;;;;;;;-144.73;100.00;54690.97;5028386;28;20408;-76
2023/12/29 07:45:06;;;;;;;25.05;4.78;;;;;;;-144.73;100.00;54690.97;5030189;28;20021;-76
2023/12/29 07:47:32;;;;;;;27.00;4.53;;;;;;;-144.73;100.00;54629.38;5030142;28;20025;-75
2023/12/29 07:49:57;;;;;;;44.38;5.47;;;;;;;-144.73;100.00;54695.06;5028506;28;20021;-75
2023/12/29 07:52:23;;;;;;;30.52;4.65;;;;;;;-144.73;100.00;54670.44;5044484;28;20040;-77
2023/12/29 07:54:49;;;;;;;25.73;4.65;;;;;;;-144.73;100.00;54682.75;5029602;28;20056;-76
2023/12/29 07:57:14;;;;;;;27.58;4.68;;;;;;;-144.73;100.00;54658.13;5030115;28;20099;-76
2023/12/29 07:59:42;;;;;;;32.70;5.80;;;;;;;-144.73;100.00;54699.16;5029540;28;20021;-74
2023/12/29 08:02:08;;;;;;;35.80;4.82;;;;;;;-144.73;100.00;54686.84;5022412;28;20037;-75
2023/12/29 08:04:33;;;;;;;36.28;4.60;;;;;;;-144.73;100.00;54674.53;5009983;28;20362;-76
2023/12/29 08:06:59;;;;;;;33.45;4.88;;;;;;;-144.73;100.00;54690.97;5003331;28;20113;-71
2023/12/29 08:09:25;;;;;;;38.45;5.47;;;;;;;-144.73;100.00;54641.69;4991120;28;20049;-71
2023/12/29 08:11:51;;;;;;;34.35;5.00;;;;;;;-144.73;100.00;54625.28;4990634;28;20555;-71
2023/12/29 08:14:16;;;;;;;32.35;4.85;;;;;;;-144.73;100.00;54682.75;5007280;28;20026;-71
2023/12/29 08:16:42;;;;;;;47.40;5.45;;;;;;;-144.73;100.00;54670.44;4997496;28;20072;-70
2023/12/29 08:19:07;;;;;;;40.30;5.15;;;;;;;-144.73;100.00;54654.00;5021969;28;20084;-70
2023/12/29 08:21:33;;;;;;;40.00;5.00;;;;;;;-144.73;100.00;54674.53;5005419;28;20480;-71
2023/12/29 08:23:59;;;;;;;38.65;4.88;;;;;;;-144.73;100.00;54662.22;5008251;28;20738;-71
2023/12/29 08:26:25;;;;;;;35.92;5.05;;;;;;;-144.73;100.00;54670.44;5035766;28;20473;-71
2023/12/29 08:28:50;;;;;;;35.67;4.80;;;;;;;-144.73;100.00;54670.44;5019567;28;20101;-70
2023/12/29 08:31:18;;;;;;;36.75;5.07;;;;;;;-144.73;100.00;54670.44;5016780;28;20045;-71
2023/12/29 08:33:44;;;;;;;28.08;4.63;;;;;;;-144.73;100.00;54705.31;5024424;28;20108;-70
2023/12/29 08:36:09;;;;;;;33.47;4.97;;;;;;;-144.73;100.00;54662.22;5029045;28;20121;-70
2023/12/29 08:38:34;;;;;;;35.33;4.85;;;;;;;-144.73;100.00;54701.22;5032310;28;20069;-70
2023/12/29 08:41:00;;;;;;;33.47;4.68;;;;;;;-144.73;100.00;54674.53;5016495;28;20041;-70
2023/12/29 08:43:26;;;;;;;33.53;4.72;;;;;;;-144.73;100.00;54647.84;5013642;28;20041;-70
2023/12/29 08:45:51;;;;;;;31.27;4.15;;;;;;;-144.73;100.00;54633.47;5014559;28;20026;-70
2023/12/29 08:48:17;;;;;;;41.50;5.43;;;;;;;-144.73;100.00;54686.84;5013126;28;20037;-71
2023/12/29 08:50:42;;;;;;;28.15;3.78;;;;;;;-144.73;100.00;54649.91;5004529;28;20076;-71
2023/12/29 08:53:11;;;;;;;35.58;5.65;;;;;;;-144.73;100.00;54641.69;5038892;28;20045;-70
2023/12/29 08:55:36;;;;;;;20.90;4.35;;;;;;;-144.73;100.00;54637.59;5026228;28;20440;-71
2023/12/29 08:58:01;;;;;;;32.33;5.22;;;;;;;-144.73;100.00;54649.91;5024688;28;20067;-71
2023/12/29 09:00:28;;;;;;;26.38;4.72;;;;;;;-144.73;100.00;54697.13;5024701;28;20030;-71
2023/12/29 09:02:54;;;;;;;33.05;5.55;;;;;;;-144.73;100.00;54610.91;5027320;28;20042;-70
2023/12/29 09:05:19;;;;;;;24.83;4.10;;;;;;;-144.73;100.00;54662.22;5028667;28;20032;-71
2023/12/29 09:07:44;;;;;;;46.15;6.03;;;;;;;-144.73;100.00;54645.78;5029226;28;20037;-70
2023/12/29 09:10:13;;;;;;;35.13;5.18;;;;;;;-144.73;100.00;54678.63;5028606;28;20021;-70
2023/12/29 09:12:39;;;;;;;36.78;5.22;;;;;;;-144.73;100.00;54690.97;5027705;28;20040;-70
2023/12/29 09:15:05;;;;;;;31.23;5.53;;;;;;;-144.73;100.00;54658.13;5029681;28;20022;-73
2023/12/29 09:17:31;;;;;;;38.47;5.95;;;;;;;-144.73;100.00;54670.44;5028431;28;20059;-77
2023/12/29 09:19:57;;;;;;;23.67;4.03;;;;;;;-144.73;100.00;54641.69;5030110;28;20109;-77
2023/12/29 09:22:22;;;;;;;18.38;3.40;;;;;;;-144.73;100.00;54682.75;5028394;28;20037;-75
2023/12/29 09:24:48;;;;;;;15.07;2.15;;;;;;;-144.73;100.00;54678.63;5026121;28;20075;-74
2023/12/29 09:27:13;;;;;;;19.45;3.17;;;;;;;-144.73;100.00;54662.22;5028778;28;20026;-75
2023/12/29 09:29:40;;;;;;;17.52;2.38;;;;;;;-144.73;100.00;54658.13;5028936;28;20021;-75
2023/12/29 09:32:05;;;;;;;12.35;2.15;;;;;;;-144.73;100.00;54633.47;5024770;28;20033;-74
2023/12/29 09:34:31;;;;;;;15.50;2.45;;;;;;;-144.73;100.00;54686.84;5009716;28;20416;-73
2023/12/29 09:36:57;;;;;;;9.35;2.47;;;;;;;-144.73;100.00;54690.97;5009698;28;20041;-72
2023/12/29 09:39:22;;;;;;;14.65;2.42;;;;;;;-144.73;100.00;54670.44;5026475;28;20060;-72
2023/12/29 09:41:51;;;;;;;14.15;2.75;;;;;;;-144.73;100.00;54674.53;5033436;28;20049;-73
2023/12/29 09:44:20;;;;;;;16.60;2.28;;;;;;;-144.73;100.00;54633.47;5028039;28;20031;-75
2023/12/29 09:46:50;;;;;;;11.02;2.33;;;;;;;-144.73;100.00;54645.78;5015143;28;20030;-75
2023/12/29 09:49:18;;;;;;;14.63;3.00;;;;;;;-144.73;100.00;54633.47;5025924;28;20009;-74
2023/12/29 09:51:44;;;;;;;17.88;2.83;;;;;;;-144.73;100.00;54707.38;5021809;28;20037;-72
2023/12/29 09:54:10;;;;;;;14.35;3.33;;;;;;;-144.73;100.00;54670.44;5028890;28;20017;-73
2023/12/29 09:56:37;;;;;;;21.38;3.75;;;;;;;-144.73;100.00;54654.00;5024838;28;20034;-73
2023/12/29 09:59:03;;;;;;;13.50;3.58;;;;;;;-144.73;100.00;54709.44;5020107;28;20406;-73
2023/12/29 10:01:30;;;;;;;29.13;3.72;;;;;;;-144.73;100.00;54658.13;5021139;28;20033;-75
2023/12/29 10:03:56;;;;;;;28.38;3.97;;;;;;;-144.73;100.00;54662.22;5025019;28;20087;-73
2023/12/29 10:06:24;;;;;;;20.60;4.07;;;;;;;-144.73;100.00;54654.00;5023773;28;20025;-73
2023/12/29 10:08:50;;;;;;;25.58;4.63;;;;;;;-144.73;100.00;54670.44;5028036;28;20052;-73
2023/12/29 10:11:18;;;;;;;30.42;4.85;;;;;;;-144.73;100.00;54654.00;5024655;28;20096;-75
2023/12/29 10:13:48;;;;;;;31.30;4.60;;;;;;;-144.73;100.00;54670.44;5010277;28;20033;-74
2023/12/29 10:16:22;;;;;;;30.33;4.40;;;;;;;-144.73;100.00;54703.28;5008230;28;20024;-74
2023/12/29 10:19:18;;;;;;;35.10;5.45;;;;;;;-144.73;100.00;54658.13;5024499;28;20042;-73
2023/12/29 10:22:03;;;;;;;29.85;4.40;;;;;;;-144.73;100.00;54699.16;5005504;28;20049;-73
2023/12/29 10:24:29;;;;;;;30.27;4.68;;;;;;;-144.73;100.00;54649.91;5007126;28;20021;-72
2023/12/29 10:26:55;;;;;;;35.63;5.43;;;;;;;-144.73;100.00;54662.22;5008357;28;20033;-70
2023/12/29 10:29:21;;;;;;;40.80;5.85;;;;;;;-144.73;100.00;54629.38;5018036;28;20490;-70
2023/12/29 10:31:46;;;;;;;25.67;3.97;;;;;;;-144.73;100.00;54670.44;5023445;28;20029;-70
2023/12/29 10:34:28;;;;;;;33.83;5.00;;;;;;;-144.73;100.00;54631.44;5026186;28;20040;-70
2023/12/29 10:37:06;;;;;;;31.55;4.57;;;;;;;-144.73;100.00;54732.00;5026995;28;20488;-70
2023/12/29 10:39:32;;;;;;;35.92;4.40;;;;;;;-144.73;100.00;54649.91;5043607;28;20063;-69
2023/12/29 10:42:05;;;;;;;36.03;7.15;;;;;;;-144.73;100.00;54662.22;5026207;28;20033;-70
2023/12/29 10:44:31;;;;;;;36.60;5.63;;;;;;;-144.73;100.00;54645.78;5014066;28;20029;-70
2023/12/29 10:46:57;;;;;;;33.40;4.63;;;;;;;-144.73;100.00;54670.44;5018821;28;20052;-71
2023/12/29 10:49:22;;;;;;;31.80;4.72;;;;;;;-144.73;100.00;54660.16;5040866;28;20044;-70
2023/12/29 10:51:48;;;;;;;37.70;4.38;;;;;;;-144.73;100.00;54672.47;5019810;28;20108;-71
2023/12/29 10:54:23;;;;;;;36.03;6.85;;;;;;;-144.73;100.00;54651.97;5010914;28;20040;-70
2023/12/29 10:57:02;;;;;;;36.35;4.78;;;;;;;-144.73;100.00;54639.63;5020588;28;20038;-70
2023/12/29 10:59:28;;;;;;;33.95;4.95;;;;;;;-144.73;100.00;54633.47;5011998;28;20033;-70